sensor_id;sensor_type;location;lat;lon;timestamp;P1;durP1;ratioP1;P2;durP2;ratioP2
19026;SDS011;9646;52.034;5.554;2022-07-22T00:02:22;4.68;;;1.42;;
19026;SDS011;9646;52.034;5.554;2022-07-22T00:04:49;4.72;;;1.42;;
19026;SDS011;9646;52.034;5.554;2022-07-22T00:07:16;6.22;;;1.77;;
19026;SDS011;9646;52.034;5.554;2022-07-22T00:09:43;3.00;;;1.40;;
19026;SDS011;9646;52.034;5.554;2022-07-22T00:12:10;5.78;;;1.88;;
19026;SDS011;9646;52.034;5.554;2022-07-22T00:14:37;4.40;;;1.50;;
19026;SDS011;9646;52.034;5.554;2022-07-22T00:17:04;5.90;;;1.88;;
19026;SDS011;9646;52.034;5.554;2022-07-22T00:19:33;4.35;;;1.50;;
19026;SDS011;9646;52.034;5.554;2022-07-22T00:22:00;5.20;;;1.80;;
19026;SDS011;9646;52.034;5.554;2022-07-22T00:24:27;8.80;;;1.80;;
19026;SDS011;9646;52.034;5.554;2022-07-22T00:26:54;6.90;;;1.77;;
19026;SDS011;9646;52.034;5.554;2022-07-22T00:29:21;6.38;;;1.92;;
19026;SDS011;9646;52.034;5.554;2022-07-22T00:31:48;5.05;;;1.55;;
19026;SDS011;9646;52.034;5.554;2022-07-22T00:34:16;5.18;;;1.90;;
19026;SDS011;9646;52.034;5.554;2022-07-22T00:36:44;4.45;;;1.48;;
19026;SDS011;9646;52.034;5.554;2022-07-22T00:39:11;7.30;;;1.83;;
19026;SDS011;9646;52.034;5.554;2022-07-22T00:41:40;7.25;;;1.95;;
19026;SDS011;9646;52.034;5.554;2022-07-22T00:44:07;11.25;;;2.17;;
19026;SDS011;9646;52.034;5.554;2022-07-22T00:46:35;7.57;;;2.00;;
19026;SDS011;9646;52.034;5.554;2022-07-22T00:49:03;7.07;;;1.83;;
19026;SDS011;9646;52.034;5.554;2022-07-22T00:51:31;6.03;;;1.92;;
19026;SDS011;9646;52.034;5.554;2022-07-22T00:53:59;4.68;;;1.70;;
19026;SDS011;9646;52.034;5.554;2022-07-22T00:56:27;5.45;;;1.65;;
19026;SDS011;9646;52.034;5.554;2022-07-22T00:58:55;5.25;;;1.80;;
19026;SDS011;9646;52.034;5.554;2022-07-22T01:01:22;7.70;;;1.75;;
19026;SDS011;9646;52.034;5.554;2022-07-22T01:03:49;7.10;;;1.75;;
19026;SDS011;9646;52.034;5.554;2022-07-22T01:06:16;5.55;;;1.67;;
19026;SDS011;9646;52.034;5.554;2022-07-22T01:08:43;3.40;;;1.55;;
19026;SDS011;9646;52.034;5.554;2022-07-22T01:11:13;5.78;;;1.80;;
19026;SDS011;9646;52.034;5.554;2022-07-22T01:13:41;6.40;;;2.05;;
19026;SDS011;9646;52.034;5.554;2022-07-22T01:16:09;4.75;;;1.95;;
19026;SDS011;9646;52.034;5.554;2022-07-22T01:18:36;5.45;;;1.52;;
19026;SDS011;9646;52.034;5.554;2022-07-22T01:21:05;5.97;;;2.03;;
19026;SDS011;9646;52.034;5.554;2022-07-22T01:23:33;4.82;;;1.52;;
19026;SDS011;9646;52.034;5.554;2022-07-22T01:26:00;8.50;;;1.83;;
19026;SDS011;9646;52.034;5.554;2022-07-22T01:28:27;6.78;;;1.80;;
19026;SDS011;9646;52.034;5.554;2022-07-22T01:30:55;4.05;;;1.52;;
19026;SDS011;9646;52.034;5.554;2022-07-22T01:33:22;4.30;;;1.60;;
19026;SDS011;9646;52.034;5.554;2022-07-22T01:35:49;4.55;;;1.77;;
19026;SDS011;9646;52.034;5.554;2022-07-22T01:38:18;4.03;;;1.33;;
19026;SDS011;9646;52.034;5.554;2022-07-22T01:40:45;6.32;;;1.33;;
19026;SDS011;9646;52.034;5.554;2022-07-22T01:43:13;5.32;;;1.48;;
19026;SDS011;9646;52.034;5.554;2022-07-22T01:45:42;3.45;;;1.40;;
19026;SDS011;9646;52.034;5.554;2022-07-22T01:48:10;5.28;;;1.40;;
19026;SDS011;9646;52.034;5.554;2022-07-22T01:50:37;3.70;;;1.00;;
19026;SDS011;9646;52.034;5.554;2022-07-22T01:53:05;4.28;;;1.10;;
19026;SDS011;9646;52.034;5.554;2022-07-22T01:55:33;3.88;;;1.13;;
19026;SDS011;9646;52.034;5.554;2022-07-22T01:58:00;4.80;;;1.35;;
19026;SDS011;9646;52.034;5.554;2022-07-22T02:00:29;4.03;;;1.13;;
19026;SDS011;9646;52.034;5.554;2022-07-22T02:02:56;2.92;;;1.00;;
19026;SDS011;9646;52.034;5.554;2022-07-22T02:05:23;3.13;;;1.23;;
19026;SDS011;9646;52.034;5.554;2022-07-22T02:07:50;3.40;;;1.08;;
19026;SDS011;9646;52.034;5.554;2022-07-22T02:10:17;3.70;;;1.00;;
19026;SDS011;9646;52.034;5.554;2022-07-22T02:12:46;3.67;;;1.10;;
19026;SDS011;9646;52.034;5.554;2022-07-22T02:15:13;3.15;;;1.08;;
19026;SDS011;9646;52.034;5.554;2022-07-22T02:17:40;2.20;;;1.10;;
19026;SDS011;9646;52.034;5.554;2022-07-22T02:20:07;5.22;;;1.23;;
19026;SDS011;9646;52.034;5.554;2022-07-22T02:22:35;2.80;;;1.42;;
19026;SDS011;9646;52.034;5.554;2022-07-22T02:25:02;6.03;;;1.38;;
19026;SDS011;9646;52.034;5.554;2022-07-22T02:27:29;2.83;;;1.20;;
19026;SDS011;9646;52.034;5.554;2022-07-22T02:29:58;3.70;;;1.10;;
19026;SDS011;9646;52.034;5.554;2022-07-22T02:32:25;5.55;;;1.45;;
19026;SDS011;9646;52.034;5.554;2022-07-22T02:34:52;2.95;;;1.17;;
19026;SDS011;9646;52.034;5.554;2022-07-22T02:37:19;3.00;;;1.20;;
19026;SDS011;9646;52.034;5.554;2022-07-22T02:39:46;4.53;;;1.20;;
19026;SDS011;9646;52.034;5.554;2022-07-22T02:42:13;5.20;;;1.10;;
19026;SDS011;9646;52.034;5.554;2022-07-22T02:44:40;5.35;;;1.40;;
19026;SDS011;9646;52.034;5.554;2022-07-22T02:47:09;3.20;;;1.20;;
19026;SDS011;9646;52.034;5.554;2022-07-22T02:49:36;4.55;;;1.65;;
19026;SDS011;9646;52.034;5.554;2022-07-22T02:52:03;4.18;;;1.40;;
19026;SDS011;9646;52.034;5.554;2022-07-22T02:54:30;4.80;;;1.40;;
19026;SDS011;9646;52.034;5.554;2022-07-22T02:56:57;3.63;;;1.00;;
19026;SDS011;9646;52.034;5.554;2022-07-22T02:59:24;4.07;;;1.67;;
19026;SDS011;9646;52.034;5.554;2022-07-22T03:01:51;3.70;;;1.23;;
19026;SDS011;9646;52.034;5.554;2022-07-22T03:04:20;7.35;;;1.80;;
19026;SDS011;9646;52.034;5.554;2022-07-22T03:06:47;3.42;;;1.58;;
19026;SDS011;9646;52.034;5.554;2022-07-22T03:09:14;6.28;;;1.58;;
19026;SDS011;9646;52.034;5.554;2022-07-22T03:11:41;3.28;;;0.90;;
19026;SDS011;9646;52.034;5.554;2022-07-22T03:14:08;3.40;;;1.15;;
19026;SDS011;9646;52.034;5.554;2022-07-22T03:16:35;2.60;;;1.25;;
19026;SDS011;9646;52.034;5.554;2022-07-22T03:19:02;6.40;;;1.48;;
19026;SDS011;9646;52.034;5.554;2022-07-22T03:21:31;6.60;;;1.60;;
19026;SDS011;9646;52.034;5.554;2022-07-22T03:23:58;6.22;;;1.55;;
19026;SDS011;9646;52.034;5.554;2022-07-22T03:26:25;3.17;;;1.67;;
19026;SDS011;9646;52.034;5.554;2022-07-22T03:28:52;3.55;;;1.42;;
19026;SDS011;9646;52.034;5.554;2022-07-22T03:31:19;2.88;;;1.42;;
19026;SDS011;9646;52.034;5.554;2022-07-22T03:33:46;4.03;;;1.25;;
19026;SDS011;9646;52.034;5.554;2022-07-22T03:36:13;5.40;;;1.90;;
19026;SDS011;9646;52.034;5.554;2022-07-22T03:38:41;6.03;;;1.48;;
19026;SDS011;9646;52.034;5.554;2022-07-22T03:41:08;7.32;;;1.65;;
19026;SDS011;9646;52.034;5.554;2022-07-22T03:43:35;4.20;;;1.77;;
19026;SDS011;9646;52.034;5.554;2022-07-22T03:46:02;7.38;;;1.70;;
19026;SDS011;9646;52.034;5.554;2022-07-22T03:48:29;4.93;;;1.58;;
19026;SDS011;9646;52.034;5.554;2022-07-22T03:50:57;4.30;;;1.50;;
19026;SDS011;9646;52.034;5.554;2022-07-22T03:53:24;3.67;;;1.38;;
19026;SDS011;9646;52.034;5.554;2022-07-22T03:55:54;3.33;;;1.35;;
19026;SDS011;9646;52.034;5.554;2022-07-22T03:58:21;4.75;;;1.23;;
19026;SDS011;9646;52.034;5.554;2022-07-22T04:00:48;6.57;;;1.70;;
19026;SDS011;9646;52.034;5.554;2022-07-22T04:03:15;2.80;;;1.30;;
19026;SDS011;9646;52.034;5.554;2022-07-22T04:05:42;4.53;;;1.80;;
19026;SDS011;9646;52.034;5.554;2022-07-22T04:08:09;4.50;;;1.67;;
19026;SDS011;9646;52.034;5.554;2022-07-22T04:10:37;4.20;;;1.45;;
19026;SDS011;9646;52.034;5.554;2022-07-22T04:13:05;4.57;;;1.70;;
19026;SDS011;9646;52.034;5.554;2022-07-22T04:15:32;3.75;;;1.50;;
19026;SDS011;9646;52.034;5.554;2022-07-22T04:17:59;4.75;;;1.60;;
19026;SDS011;9646;52.034;5.554;2022-07-22T04:20:26;4.93;;;1.80;;
19026;SDS011;9646;52.034;5.554;2022-07-22T04:22:54;3.90;;;1.40;;
19026;SDS011;9646;52.034;5.554;2022-07-22T04:25:21;3.17;;;1.20;;
19026;SDS011;9646;52.034;5.554;2022-07-22T04:27:48;4.47;;;1.85;;
19026;SDS011;9646;52.034;5.554;2022-07-22T04:30:17;3.03;;;1.30;;
19026;SDS011;9646;52.034;5.554;2022-07-22T04:32:44;3.60;;;1.60;;
19026;SDS011;9646;52.034;5.554;2022-07-22T04:35:11;3.67;;;1.60;;
19026;SDS011;9646;52.034;5.554;2022-07-22T04:37:38;2.20;;;1.15;;
19026;SDS011;9646;52.034;5.554;2022-07-22T04:40:05;6.85;;;1.67;;
19026;SDS011;9646;52.034;5.554;2022-07-22T04:42:33;3.22;;;1.60;;
19026;SDS011;9646;52.034;5.554;2022-07-22T04:45:00;6.15;;;2.10;;
19026;SDS011;9646;52.034;5.554;2022-07-22T04:47:28;4.15;;;1.40;;
19026;SDS011;9646;52.034;5.554;2022-07-22T04:49:55;4.57;;;1.80;;
19026;SDS011;9646;52.034;5.554;2022-07-22T04:52:22;5.85;;;1.88;;
19026;SDS011;9646;52.034;5.554;2022-07-22T04:54:49;2.90;;;1.50;;
19026;SDS011;9646;52.034;5.554;2022-07-22T04:57:16;7.18;;;1.60;;
19026;SDS011;9646;52.034;5.554;2022-07-22T04:59:43;4.88;;;1.95;;
19026;SDS011;9646;52.034;5.554;2022-07-22T05:02:10;6.53;;;1.73;;
19026;SDS011;9646;52.034;5.554;2022-07-22T05:04:39;3.45;;;1.50;;
19026;SDS011;9646;52.034;5.554;2022-07-22T05:07:06;5.15;;;2.00;;
19026;SDS011;9646;52.034;5.554;2022-07-22T05:09:33;2.72;;;1.55;;
19026;SDS011;9646;52.034;5.554;2022-07-22T05:12:00;3.53;;;1.50;;
19026;SDS011;9646;52.034;5.554;2022-07-22T05:14:27;7.72;;;1.95;;
19026;SDS011;9646;52.034;5.554;2022-07-22T05:16:54;5.97;;;1.30;;
19026;SDS011;9646;52.034;5.554;2022-07-22T05:19:21;4.80;;;1.58;;
19026;SDS011;9646;52.034;5.554;2022-07-22T05:21:50;4.30;;;1.45;;
19026;SDS011;9646;52.034;5.554;2022-07-22T05:24:17;5.80;;;1.90;;
19026;SDS011;9646;52.034;5.554;2022-07-22T05:26:44;4.43;;;1.77;;
19026;SDS011;9646;52.034;5.554;2022-07-22T05:29:11;3.97;;;1.50;;
19026;SDS011;9646;52.034;5.554;2022-07-22T05:31:38;2.97;;;1.20;;
19026;SDS011;9646;52.034;5.554;2022-07-22T05:34:05;5.75;;;1.73;;
19026;SDS011;9646;52.034;5.554;2022-07-22T05:36:32;3.20;;;1.27;;
19026;SDS011;9646;52.034;5.554;2022-07-22T05:39:01;2.85;;;1.63;;
19026;SDS011;9646;52.034;5.554;2022-07-22T05:41:28;6.93;;;1.83;;
19026;SDS011;9646;52.034;5.554;2022-07-22T05:43:55;3.50;;;1.27;;
19026;SDS011;9646;52.034;5.554;2022-07-22T05:46:22;3.03;;;1.33;;
19026;SDS011;9646;52.034;5.554;2022-07-22T05:48:50;3.03;;;1.23;;
19026;SDS011;9646;52.034;5.554;2022-07-22T05:51:17;7.05;;;1.30;;
19026;SDS011;9646;52.034;5.554;2022-07-22T05:53:44;3.60;;;1.30;;
19026;SDS011;9646;52.034;5.554;2022-07-22T05:56:12;4.43;;;1.40;;
19026;SDS011;9646;52.034;5.554;2022-07-22T05:58:39;3.95;;;1.60;;
19026;SDS011;9646;52.034;5.554;2022-07-22T06:01:07;3.90;;;1.55;;
19026;SDS011;9646;52.034;5.554;2022-07-22T06:03:34;4.60;;;1.50;;
19026;SDS011;9646;52.034;5.554;2022-07-22T06:06:01;4.40;;;1.13;;
19026;SDS011;9646;52.034;5.554;2022-07-22T06:08:30;3.40;;;1.45;;
19026;SDS011;9646;52.034;5.554;2022-07-22T06:10:58;5.07;;;1.30;;
19026;SDS011;9646;52.034;5.554;2022-07-22T06:13:26;3.78;;;1.20;;
19026;SDS011;9646;52.034;5.554;2022-07-22T06:15:53;4.05;;;1.35;;
19026;SDS011;9646;52.034;5.554;2022-07-22T06:18:21;6.10;;;1.40;;
19026;SDS011;9646;52.034;5.554;2022-07-22T06:20:48;4.15;;;1.33;;
19026;SDS011;9646;52.034;5.554;2022-07-22T06:23:15;4.28;;;1.88;;
19026;SDS011;9646;52.034;5.554;2022-07-22T06:25:42;4.03;;;1.50;;
19026;SDS011;9646;52.034;5.554;2022-07-22T06:28:09;5.30;;;1.40;;
19026;SDS011;9646;52.034;5.554;2022-07-22T06:30:37;5.95;;;1.65;;
19026;SDS011;9646;52.034;5.554;2022-07-22T06:33:05;3.28;;;1.25;;
19026;SDS011;9646;52.034;5.554;2022-07-22T06:35:32;4.32;;;1.13;;
19026;SDS011;9646;52.034;5.554;2022-07-22T06:37:59;5.03;;;1.30;;
19026;SDS011;9646;52.034;5.554;2022-07-22T06:40:26;4.22;;;0.90;;
19026;SDS011;9646;52.034;5.554;2022-07-22T06:42:53;3.45;;;1.08;;
19026;SDS011;9646;52.034;5.554;2022-07-22T06:45:20;3.33;;;1.13;;
19026;SDS011;9646;52.034;5.554;2022-07-22T06:47:48;3.65;;;1.15;;
19026;SDS011;9646;52.034;5.554;2022-07-22T06:50:15;3.13;;;0.93;;
19026;SDS011;9646;52.034;5.554;2022-07-22T06:52:42;3.28;;;1.00;;
19026;SDS011;9646;52.034;5.554;2022-07-22T06:55:09;7.50;;;1.50;;
19026;SDS011;9646;52.034;5.554;2022-07-22T06:57:37;2.42;;;1.00;;
19026;SDS011;9646;52.034;5.554;2022-07-22T07:00:04;3.33;;;0.82;;
19026;SDS011;9646;52.034;5.554;2022-07-22T07:02:33;4.85;;;1.20;;
19026;SDS011;9646;52.034;5.554;2022-07-22T07:05:02;1.65;;;0.80;;
19026;SDS011;9646;52.034;5.554;2022-07-22T07:07:29;4.85;;;1.40;;
19026;SDS011;9646;52.034;5.554;2022-07-22T07:09:56;2.60;;;0.90;;
19026;SDS011;9646;52.034;5.554;2022-07-22T07:12:23;3.15;;;1.10;;
19026;SDS011;9646;52.034;5.554;2022-07-22T07:14:50;2.97;;;0.70;;
19026;SDS011;9646;52.034;5.554;2022-07-22T07:17:17;3.53;;;1.10;;
19026;SDS011;9646;52.034;5.554;2022-07-22T07:19:44;6.15;;;1.30;;
19026;SDS011;9646;52.034;5.554;2022-07-22T07:22:13;3.30;;;1.15;;
19026;SDS011;9646;52.034;5.554;2022-07-22T07:24:40;2.67;;;0.90;;
19026;SDS011;9646;52.034;5.554;2022-07-22T07:27:07;3.42;;;0.90;;
19026;SDS011;9646;52.034;5.554;2022-07-22T07:29:34;3.05;;;1.10;;
19026;SDS011;9646;52.034;5.554;2022-07-22T07:32:01;2.72;;;1.13;;
19026;SDS011;9646;52.034;5.554;2022-07-22T07:34:28;4.22;;;1.20;;
19026;SDS011;9646;52.034;5.554;2022-07-22T07:36:55;3.33;;;1.30;;
19026;SDS011;9646;52.034;5.554;2022-07-22T07:39:24;3.40;;;1.30;;
19026;SDS011;9646;52.034;5.554;2022-07-22T07:41:51;7.53;;;1.35;;
19026;SDS011;9646;52.034;5.554;2022-07-22T07:44:18;3.00;;;1.00;;
19026;SDS011;9646;52.034;5.554;2022-07-22T07:46:46;2.53;;;0.93;;
19026;SDS011;9646;52.034;5.554;2022-07-22T07:49:13;3.00;;;0.85;;
19026;SDS011;9646;52.034;5.554;2022-07-22T07:51:40;2.15;;;0.77;;
19026;SDS011;9646;52.034;5.554;2022-07-22T07:54:07;3.58;;;1.38;;
19026;SDS011;9646;52.034;5.554;2022-07-22T07:56:35;3.97;;;1.20;;
19026;SDS011;9646;52.034;5.554;2022-07-22T07:59:02;3.95;;;1.10;;
19026;SDS011;9646;52.034;5.554;2022-07-22T08:01:29;6.88;;;1.35;;
19026;SDS011;9646;52.034;5.554;2022-07-22T08:03:56;2.42;;;0.80;;
19026;SDS011;9646;52.034;5.554;2022-07-22T08:06:23;3.53;;;1.00;;
19026;SDS011;9646;52.034;5.554;2022-07-22T08:08:51;2.75;;;0.90;;
19026;SDS011;9646;52.034;5.554;2022-07-22T08:11:18;3.92;;;1.38;;
19026;SDS011;9646;52.034;5.554;2022-07-22T08:13:46;3.17;;;1.02;;
19026;SDS011;9646;52.034;5.554;2022-07-22T08:16:13;4.95;;;1.23;;
19026;SDS011;9646;52.034;5.554;2022-07-22T08:18:40;1.90;;;0.90;;
19026;SDS011;9646;52.034;5.554;2022-07-22T08:21:07;3.45;;;1.10;;
19026;SDS011;9646;52.034;5.554;2022-07-22T08:23:35;3.65;;;1.10;;
19026;SDS011;9646;52.034;5.554;2022-07-22T08:26:02;4.45;;;1.25;;
19026;SDS011;9646;52.034;5.554;2022-07-22T08:28:29;4.68;;;1.13;;
19026;SDS011;9646;52.034;5.554;2022-07-22T08:30:57;3.95;;;1.42;;
19026;SDS011;9646;52.034;5.554;2022-07-22T08:33:24;3.05;;;0.80;;
19026;SDS011;9646;52.034;5.554;2022-07-22T08:35:51;1.40;;;0.82;;
19026;SDS011;9646;52.034;5.554;2022-07-22T08:38:18;1.65;;;0.93;;
19026;SDS011;9646;52.034;5.554;2022-07-22T08:40:46;2.33;;;1.13;;
19026;SDS011;9646;52.034;5.554;2022-07-22T08:43:13;1.98;;;0.75;;
19026;SDS011;9646;52.034;5.554;2022-07-22T08:45:40;3.20;;;1.20;;
19026;SDS011;9646;52.034;5.554;2022-07-22T08:48:08;6.07;;;1.48;;
19026;SDS011;9646;52.034;5.554;2022-07-22T08:50:35;8.32;;;1.77;;
19026;SDS011;9646;52.034;5.554;2022-07-22T08:53:03;1.50;;;0.95;;
19026;SDS011;9646;52.034;5.554;2022-07-22T08:55:30;4.00;;;1.25;;
19026;SDS011;9646;52.034;5.554;2022-07-22T08:57:57;4.00;;;1.40;;
19026;SDS011;9646;52.034;5.554;2022-07-22T09:00:24;3.00;;;1.00;;
19026;SDS011;9646;52.034;5.554;2022-07-22T09:02:51;1.70;;;1.20;;
19026;SDS011;9646;52.034;5.554;2022-07-22T09:05:20;2.65;;;0.80;;
19026;SDS011;9646;52.034;5.554;2022-07-22T09:07:47;2.00;;;0.80;;
19026;SDS011;9646;52.034;5.554;2022-07-22T09:10:15;4.28;;;1.00;;
19026;SDS011;9646;52.034;5.554;2022-07-22T09:12:52;2.28;;;0.82;;
19026;SDS011;9646;52.034;5.554;2022-07-22T09:15:27;3.10;;;1.08;;
19026;SDS011;9646;52.034;5.554;2022-07-22T09:17:54;0.98;;;0.80;;
19026;SDS011;9646;52.034;5.554;2022-07-22T09:20:22;3.05;;;0.90;;
19026;SDS011;9646;52.034;5.554;2022-07-22T09:22:50;1.90;;;0.73;;
19026;SDS011;9646;52.034;5.554;2022-07-22T09:25:21;2.13;;;0.75;;
19026;SDS011;9646;52.034;5.554;2022-07-22T09:27:49;2.13;;;0.73;;
19026;SDS011;9646;52.034;5.554;2022-07-22T09:30:17;1.48;;;0.80;;
19026;SDS011;9646;52.034;5.554;2022-07-22T09:32:45;1.33;;;0.80;;
19026;SDS011;9646;52.034;5.554;2022-07-22T09:35:13;2.50;;;1.00;;
19026;SDS011;9646;52.034;5.554;2022-07-22T09:37:52;1.27;;;0.75;;
19026;SDS011;9646;52.034;5.554;2022-07-22T09:40:21;1.60;;;0.90;;
19026;SDS011;9646;52.034;5.554;2022-07-22T09:42:49;2.08;;;1.20;;
19026;SDS011;9646;52.034;5.554;2022-07-22T09:45:17;1.45;;;0.85;;
19026;SDS011;9646;52.034;5.554;2022-07-22T09:47:44;1.35;;;0.82;;
19026;SDS011;9646;52.034;5.554;2022-07-22T09:50:16;1.58;;;0.80;;
19026;SDS011;9646;52.034;5.554;2022-07-22T09:52:43;3.03;;;0.98;;
19026;SDS011;9646;52.034;5.554;2022-07-22T09:55:12;1.90;;;0.80;;
19026;SDS011;9646;52.034;5.554;2022-07-22T09:57:39;1.67;;;0.80;;
19026;SDS011;9646;52.034;5.554;2022-07-22T10:00:07;3.55;;;1.10;;
19026;SDS011;9646;52.034;5.554;2022-07-22T10:02:35;1.42;;;0.88;;
19026;SDS011;9646;52.034;5.554;2022-07-22T10:05:04;1.67;;;0.93;;
19026;SDS011;9646;52.034;5.554;2022-07-22T10:07:31;2.10;;;0.77;;
19026;SDS011;9646;52.034;5.554;2022-07-22T10:09:58;2.22;;;1.17;;
19026;SDS011;9646;52.034;5.554;2022-07-22T10:12:27;5.13;;;1.45;;
19026;SDS011;9646;52.034;5.554;2022-07-22T10:14:54;3.40;;;1.20;;
19026;SDS011;9646;52.034;5.554;2022-07-22T10:17:22;2.08;;;0.80;;
19026;SDS011;9646;52.034;5.554;2022-07-22T10:19:49;1.77;;;1.00;;
19026;SDS011;9646;52.034;5.554;2022-07-22T10:25:02;4.35;;;1.30;;
19026;SDS011;9646;52.034;5.554;2022-07-22T10:30:17;2.25;;;0.95;;
19026;SDS011;9646;52.034;5.554;2022-07-22T10:32:44;4.63;;;1.35;;
19026;SDS011;9646;52.034;5.554;2022-07-22T10:35:21;2.60;;;1.25;;
19026;SDS011;9646;52.034;5.554;2022-07-22T10:37:51;1.52;;;0.90;;
19026;SDS011;9646;52.034;5.554;2022-07-22T10:40:19;4.10;;;1.20;;
19026;SDS011;9646;52.034;5.554;2022-07-22T10:43:02;1.70;;;0.85;;
19026;SDS011;9646;52.034;5.554;2022-07-22T10:45:32;3.08;;;1.17;;
19026;SDS011;9646;52.034;5.554;2022-07-22T10:47:59;3.15;;;1.40;;
19026;SDS011;9646;52.034;5.554;2022-07-22T10:50:41;3.25;;;1.10;;
19026;SDS011;9646;52.034;5.554;2022-07-22T10:53:09;3.20;;;1.20;;
19026;SDS011;9646;52.034;5.554;2022-07-22T10:55:36;5.10;;;1.40;;
19026;SDS011;9646;52.034;5.554;2022-07-22T11:00:50;3.25;;;0.95;;
19026;SDS011;9646;52.034;5.554;2022-07-22T11:03:23;3.17;;;1.23;;
19026;SDS011;9646;52.034;5.554;2022-07-22T11:05:52;1.70;;;0.88;;
19026;SDS011;9646;52.034;5.554;2022-07-22T11:08:21;1.42;;;0.80;;
19026;SDS011;9646;52.034;5.554;2022-07-22T11:10:48;1.45;;;1.08;;
19026;SDS011;9646;52.034;5.554;2022-07-22T11:13:29;2.13;;;0.90;;
19026;SDS011;9646;52.034;5.554;2022-07-22T11:18:47;2.33;;;1.00;;
19026;SDS011;9646;52.034;5.554;2022-07-22T11:21:15;4.50;;;1.20;;
19026;SDS011;9646;52.034;5.554;2022-07-22T11:23:43;2.13;;;0.80;;
19026;SDS011;9646;52.034;5.554;2022-07-22T11:26:10;1.83;;;0.90;;
19026;SDS011;9646;52.034;5.554;2022-07-22T11:28:39;3.55;;;1.17;;
19026;SDS011;9646;52.034;5.554;2022-07-22T11:31:07;1.95;;;1.20;;
19026;SDS011;9646;52.034;5.554;2022-07-22T11:33:34;1.75;;;0.80;;
19026;SDS011;9646;52.034;5.554;2022-07-22T11:36:03;8.93;;;1.38;;
19026;SDS011;9646;52.034;5.554;2022-07-22T11:38:45;4.80;;;1.38;;
19026;SDS011;9646;52.034;5.554;2022-07-22T11:41:12;2.83;;;1.02;;
19026;SDS011;9646;52.034;5.554;2022-07-22T11:43:40;4.18;;;1.20;;
19026;SDS011;9646;52.034;5.554;2022-07-22T11:46:07;2.55;;;1.08;;
19026;SDS011;9646;52.034;5.554;2022-07-22T11:48:34;2.92;;;0.95;;
19026;SDS011;9646;52.034;5.554;2022-07-22T11:51:04;2.13;;;1.17;;
19026;SDS011;9646;52.034;5.554;2022-07-22T11:53:31;2.38;;;1.15;;
19026;SDS011;9646;52.034;5.554;2022-07-22T11:55:58;5.05;;;1.20;;
19026;SDS011;9646;52.034;5.554;2022-07-22T11:58:33;4.93;;;1.63;;
19026;SDS011;9646;52.034;5.554;2022-07-22T12:01:00;2.95;;;1.10;;
19026;SDS011;9646;52.034;5.554;2022-07-22T12:03:27;2.60;;;1.10;;
19026;SDS011;9646;52.034;5.554;2022-07-22T12:05:54;3.05;;;0.93;;
19026;SDS011;9646;52.034;5.554;2022-07-22T12:08:23;2.80;;;0.88;;
19026;SDS011;9646;52.034;5.554;2022-07-22T12:10:50;3.30;;;0.95;;
19026;SDS011;9646;52.034;5.554;2022-07-22T12:13:17;1.08;;;0.85;;
19026;SDS011;9646;52.034;5.554;2022-07-22T12:15:44;1.42;;;0.80;;
19026;SDS011;9646;52.034;5.554;2022-07-22T12:18:15;2.13;;;0.85;;
19026;SDS011;9646;52.034;5.554;2022-07-22T12:20:43;2.67;;;0.95;;
19026;SDS011;9646;52.034;5.554;2022-07-22T12:23:10;3.83;;;1.20;;
19026;SDS011;9646;52.034;5.554;2022-07-22T12:25:50;5.28;;;1.20;;
19026;SDS011;9646;52.034;5.554;2022-07-22T12:28:17;2.65;;;1.20;;
19026;SDS011;9646;52.034;5.554;2022-07-22T12:30:44;2.90;;;1.00;;
19026;SDS011;9646;52.034;5.554;2022-07-22T12:33:12;4.20;;;1.30;;
19026;SDS011;9646;52.034;5.554;2022-07-22T12:35:40;2.95;;;1.13;;
19026;SDS011;9646;52.034;5.554;2022-07-22T12:38:07;1.92;;;1.08;;
19026;SDS011;9646;52.034;5.554;2022-07-22T12:40:34;2.03;;;1.00;;
19026;SDS011;9646;52.034;5.554;2022-07-22T12:43:04;2.47;;;1.08;;
19026;SDS011;9646;52.034;5.554;2022-07-22T12:45:32;1.83;;;0.95;;
19026;SDS011;9646;52.034;5.554;2022-07-22T12:48:05;3.80;;;1.55;;
19026;SDS011;9646;52.034;5.554;2022-07-22T12:50:33;3.88;;;1.35;;
19026;SDS011;9646;52.034;5.554;2022-07-22T12:53:01;2.05;;;1.20;;
19026;SDS011;9646;52.034;5.554;2022-07-22T12:55:29;5.80;;;2.05;;
19026;SDS011;9646;52.034;5.554;2022-07-22T12:57:57;3.42;;;1.27;;
19026;SDS011;9646;52.034;5.554;2022-07-22T13:00:26;5.00;;;1.70;;
19026;SDS011;9646;52.034;5.554;2022-07-22T13:02:53;3.25;;;1.30;;
19026;SDS011;9646;52.034;5.554;2022-07-22T13:05:21;3.08;;;1.65;;
19026;SDS011;9646;52.034;5.554;2022-07-22T13:07:48;5.70;;;2.15;;
19026;SDS011;9646;52.034;5.554;2022-07-22T13:10:18;2.55;;;1.30;;
19026;SDS011;9646;52.034;5.554;2022-07-22T13:12:46;2.47;;;1.55;;
19026;SDS011;9646;52.034;5.554;2022-07-22T13:15:13;6.63;;;1.02;;
19026;SDS011;9646;52.034;5.554;2022-07-22T13:17:41;3.22;;;1.27;;
19026;SDS011;9646;52.034;5.554;2022-07-22T13:20:09;2.72;;;1.23;;
19026;SDS011;9646;52.034;5.554;2022-07-22T13:22:37;2.10;;;1.13;;
19026;SDS011;9646;52.034;5.554;2022-07-22T13:25:05;5.15;;;1.20;;
19026;SDS011;9646;52.034;5.554;2022-07-22T13:27:32;2.58;;;1.15;;
19026;SDS011;9646;52.034;5.554;2022-07-22T13:29:59;1.67;;;1.40;;
19026;SDS011;9646;52.034;5.554;2022-07-22T13:32:26;3.72;;;1.42;;
19026;SDS011;9646;52.034;5.554;2022-07-22T13:34:55;2.40;;;0.98;;
19026;SDS011;9646;52.034;5.554;2022-07-22T13:37:22;2.42;;;1.27;;
19026;SDS011;9646;52.034;5.554;2022-07-22T13:39:49;3.42;;;1.30;;
19026;SDS011;9646;52.034;5.554;2022-07-22T13:42:17;3.85;;;1.45;;
19026;SDS011;9646;52.034;5.554;2022-07-22T13:44:44;2.30;;;1.45;;
19026;SDS011;9646;52.034;5.554;2022-07-22T13:47:11;5.15;;;1.70;;
19026;SDS011;9646;52.034;5.554;2022-07-22T13:49:38;3.95;;;1.60;;
19026;SDS011;9646;52.034;5.554;2022-07-22T13:52:07;3.60;;;2.38;;
19026;SDS011;9646;52.034;5.554;2022-07-22T13:54:34;4.55;;;1.60;;
19026;SDS011;9646;52.034;5.554;2022-07-22T13:57:01;3.55;;;1.50;;
19026;SDS011;9646;52.034;5.554;2022-07-22T13:59:30;3.33;;;1.67;;
19026;SDS011;9646;52.034;5.554;2022-07-22T14:01:57;2.67;;;1.70;;
19026;SDS011;9646;52.034;5.554;2022-07-22T14:04:24;2.67;;;1.65;;
19026;SDS011;9646;52.034;5.554;2022-07-22T14:06:52;3.58;;;1.85;;
19026;SDS011;9646;52.034;5.554;2022-07-22T14:09:20;3.70;;;1.92;;
19026;SDS011;9646;52.034;5.554;2022-07-22T14:11:47;4.78;;;1.55;;
19026;SDS011;9646;52.034;5.554;2022-07-22T14:14:14;3.15;;;1.85;;
19026;SDS011;9646;52.034;5.554;2022-07-22T14:16:41;2.38;;;2.00;;
19026;SDS011;9646;52.034;5.554;2022-07-22T14:19:09;1.83;;;1.50;;
19026;SDS011;9646;52.034;5.554;2022-07-22T14:21:37;3.92;;;2.17;;
19026;SDS011;9646;52.034;5.554;2022-07-22T14:24:05;4.70;;;2.15;;
19026;SDS011;9646;52.034;5.554;2022-07-22T14:26:34;6.97;;;2.70;;
19026;SDS011;9646;52.034;5.554;2022-07-22T14:29:02;4.43;;;3.33;;
19026;SDS011;9646;52.034;5.554;2022-07-22T14:31:30;4.18;;;2.60;;
19026;SDS011;9646;52.034;5.554;2022-07-22T14:33:57;4.43;;;2.50;;
19026;SDS011;9646;52.034;5.554;2022-07-22T14:36:24;3.15;;;2.15;;
19026;SDS011;9646;52.034;5.554;2022-07-22T14:38:51;3.03;;;2.20;;
19026;SDS011;9646;52.034;5.554;2022-07-22T14:41:19;4.82;;;2.17;;
19026;SDS011;9646;52.034;5.554;2022-07-22T14:43:47;5.80;;;2.70;;
19026;SDS011;9646;52.034;5.554;2022-07-22T14:46:14;5.20;;;3.22;;
19026;SDS011;9646;52.034;5.554;2022-07-22T14:48:41;6.43;;;3.20;;
19026;SDS011;9646;52.034;5.554;2022-07-22T14:51:10;15.90;;;5.90;;
19026;SDS011;9646;52.034;5.554;2022-07-22T14:53:38;16.00;;;6.78;;
19026;SDS011;9646;52.034;5.554;2022-07-22T14:56:05;7.57;;;3.85;;
19026;SDS011;9646;52.034;5.554;2022-07-22T14:58:32;8.10;;;3.78;;
19026;SDS011;9646;52.034;5.554;2022-07-22T15:01:00;9.45;;;4.63;;
19026;SDS011;9646;52.034;5.554;2022-07-22T15:03:27;7.10;;;4.05;;
19026;SDS011;9646;52.034;5.554;2022-07-22T15:05:54;7.40;;;3.83;;
19026;SDS011;9646;52.034;5.554;2022-07-22T15:08:21;5.22;;;3.38;;
19026;SDS011;9646;52.034;5.554;2022-07-22T15:10:48;6.72;;;3.45;;
19026;SDS011;9646;52.034;5.554;2022-07-22T15:13:16;9.07;;;4.53;;
19026;SDS011;9646;52.034;5.554;2022-07-22T15:15:45;4.40;;;3.05;;